createdAt,value
2018-06-08T00:00:16.712Z,20.70
2018-06-08T00:02:45.184Z,20.70
2018-06-08T00:05:13.631Z,20.70
2018-06-08T00:07:42.228Z,20.70
2018-06-08T00:10:10.684Z,20.70
2018-06-08T00:12:39.260Z,20.70
2018-06-08T00:15:07.807Z,20.70
2018-06-08T00:17:36.256Z,20.60
2018-06-08T00:20:04.767Z,20.70
2018-06-08T00:22:33.234Z,20.70
2018-06-08T00:27:29.975Z,20.60
2018-06-08T00:29:58.479Z,20.70
2018-06-08T00:32:26.937Z,20.60
2018-06-08T00:34:55.441Z,20.60
2018-06-08T00:37:23.912Z,20.60
2018-06-08T00:39:52.355Z,20.60
2018-06-08T00:42:20.877Z,20.60
2018-06-08T00:47:17.534Z,20.60
2018-06-08T00:52:14.167Z,20.60
2018-06-08T00:54:42.663Z,20.60
2018-06-08T00:57:11.154Z,20.60
2018-06-08T01:02:07.856Z,20.70
2018-06-08T01:04:36.377Z,20.70
2018-06-08T01:07:04.915Z,20.70
2018-06-08T01:09:33.460Z,20.60
2018-06-08T01:17:00.056Z,20.70
2018-06-08T01:19:30.660Z,20.70
2018-06-08T01:24:27.339Z,20.60
2018-06-08T01:26:55.791Z,20.60
2018-06-08T01:29:24.327Z,20.60
2018-06-08T01:31:52.905Z,20.60
2018-06-08T01:34:21.439Z,20.60
2018-06-08T01:36:49.924Z,20.60
2018-06-08T01:39:18.380Z,20.60
2018-06-08T01:41:46.882Z,20.60
2018-06-08T01:44:15.365Z,20.60
2018-06-08T01:46:43.859Z,20.70
2018-06-08T01:51:40.499Z,20.70
2018-06-08T01:54:09.047Z,20.70
2018-06-08T01:56:37.551Z,20.80
2018-06-08T01:59:06.100Z,20.80
2018-06-08T02:01:34.591Z,20.90
2018-06-08T02:04:03.144Z,20.90
2018-06-08T02:08:59.759Z,20.80
2018-06-08T02:11:28.247Z,20.80
2018-06-08T02:13:56.692Z,20.80
2018-06-08T02:16:25.232Z,20.80
2018-06-08T02:21:21.851Z,20.70
2018-06-08T02:23:50.320Z,20.70
2018-06-08T02:26:20.787Z,20.70
2018-06-08T02:28:49.235Z,20.70
2018-06-08T02:31:17.738Z,20.70
2018-06-08T02:33:46.228Z,20.70
2018-06-08T02:36:14.787Z,20.80
2018-06-08T02:38:43.283Z,20.80
2018-06-08T02:41:11.816Z,20.80
2018-06-08T02:43:40.279Z,20.70
2018-06-08T02:48:36.870Z,20.70
2018-06-08T02:51:05.416Z,20.70
2018-06-08T02:56:02.048Z,20.60
2018-06-08T02:58:30.504Z,20.60
2018-06-08T03:00:59.036Z,20.60
2018-06-08T03:05:55.653Z,20.60
2018-06-08T03:09:48.352Z,20.50
2018-06-08T03:14:45.069Z,20.40
2018-06-08T03:17:13.637Z,20.30
2018-06-08T03:19:42.159Z,20.40
2018-06-08T03:22:10.643Z,20.40
2018-06-08T03:24:39.107Z,20.40
2018-06-08T03:27:07.583Z,20.50
2018-06-08T03:29:36.094Z,20.50
2018-06-08T03:34:33.135Z,20.50
2018-06-08T03:37:01.600Z,20.50
2018-06-08T03:39:30.084Z,20.50
2018-06-08T03:41:58.579Z,20.50
2018-06-08T03:44:27.083Z,20.50
2018-06-08T03:46:55.605Z,20.50
2018-06-08T03:49:24.123Z,20.50
2018-06-08T03:51:52.647Z,20.50
2018-06-08T03:56:49.664Z,20.50
2018-06-08T03:59:19.469Z,20.50
2018-06-08T04:01:47.976Z,20.60
2018-06-08T04:04:16.607Z,20.60
2018-06-08T04:06:45.111Z,20.60
2018-06-08T04:09:13.647Z,20.60
2018-06-08T04:11:42.106Z,20.60
2018-06-08T04:14:10.615Z,20.60
2018-06-08T04:16:39.079Z,20.50
2018-06-08T04:19:07.557Z,20.50
2018-06-08T04:21:36.052Z,20.50
2018-06-08T04:24:04.535Z,20.50
2018-06-08T04:29:01.291Z,20.50
2018-06-08T04:33:57.952Z,20.40
2018-06-08T04:38:54.579Z,20.40
2018-06-08T04:41:23.083Z,20.40
2018-06-08T04:43:51.542Z,20.40
2018-06-08T04:46:20.091Z,20.40
2018-06-08T04:48:48.627Z,20.40
2018-06-08T04:51:17.119Z,20.40
2018-06-08T04:53:45.555Z,20.40
2018-06-08T04:56:14.079Z,20.40
2018-06-08T04:58:42.540Z,20.40
2018-06-08T05:01:11.073Z,20.40
2018-06-08T05:03:39.480Z,20.40
2018-06-08T05:06:08.875Z,20.50
2018-06-08T05:08:37.395Z,20.50
2018-06-08T05:11:05.857Z,20.60
2018-06-08T05:13:34.367Z,20.60
2018-06-08T05:16:02.836Z,20.70
2018-06-08T05:18:31.319Z,20.80
2018-06-08T05:20:59.755Z,20.80
2018-06-08T05:23:28.277Z,20.80
2018-06-08T05:25:56.764Z,20.90
2018-06-08T05:28:25.428Z,21.00
2018-06-08T05:30:53.932Z,21.10
2018-06-08T05:33:22.434Z,21.20
2018-06-08T05:43:15.399Z,21.30
2018-06-08T05:45:43.984Z,21.30
2018-06-08T05:48:12.526Z,21.30
2018-06-08T05:53:09.148Z,21.40
2018-06-08T05:55:37.714Z,21.50
2018-06-08T05:58:06.287Z,21.50
2018-06-08T06:00:34.780Z,21.50
2018-06-08T06:03:03.311Z,21.50
2018-06-08T06:05:31.763Z,21.50
2018-06-08T06:08:00.249Z,21.60
2018-06-08T06:10:28.803Z,21.60
2018-06-08T06:12:57.312Z,21.70
2018-06-08T06:15:25.784Z,21.80
2018-06-08T06:17:54.296Z,21.80
2018-06-08T06:22:50.927Z,21.70
2018-06-08T06:25:19.391Z,21.70
2018-06-08T06:27:47.928Z,21.80
2018-06-08T06:30:16.498Z,21.80
2018-06-08T06:37:41.280Z,21.80
2018-06-08T06:40:09.795Z,21.80
2018-06-08T06:42:38.247Z,21.90
2018-06-08T06:45:06.877Z,21.90
2018-06-08T06:50:03.555Z,21.90
2018-06-08T06:52:32.079Z,21.90
2018-06-08T06:55:00.763Z,21.80
2018-06-08T06:57:29.243Z,21.70
2018-06-08T06:59:57.842Z,21.90
2018-06-08T07:02:26.328Z,22.00
2018-06-08T07:04:54.825Z,22.00
2018-06-08T07:07:23.287Z,22.10
2018-06-08T07:09:51.748Z,22.20
2018-06-08T07:12:21.163Z,22.20
2018-06-08T07:14:49.617Z,22.20
2018-06-08T07:17:18.143Z,22.20
2018-06-08T07:19:46.585Z,22.20
2018-06-08T07:22:15.113Z,22.20
2018-06-08T07:24:43.600Z,22.20
2018-06-08T07:27:12.036Z,22.20
2018-06-08T07:29:40.572Z,22.30
2018-06-08T07:39:34.271Z,22.40
2018-06-08T07:42:02.836Z,22.50
2018-06-08T07:44:31.352Z,22.60
2018-06-08T07:46:59.828Z,22.60
2018-06-08T07:49:28.353Z,22.60
2018-06-08T07:51:56.923Z,22.70
2018-06-08T07:54:25.460Z,22.90
2018-06-08T07:56:53.919Z,22.90
2018-06-08T07:59:22.417Z,23.00
2018-06-08T08:01:50.907Z,23.10
2018-06-08T08:04:19.423Z,23.10
2018-06-08T08:06:47.840Z,23.20
2018-06-08T08:09:16.400Z,23.20
2018-06-08T08:11:44.829Z,23.20
2018-06-08T08:14:13.303Z,23.20
2018-06-08T08:16:41.799Z,23.30
2018-06-08T08:19:10.309Z,23.40
2018-06-08T08:21:38.907Z,23.30
2018-06-08T08:24:07.391Z,23.30
2018-06-08T08:26:35.875Z,23.20
2018-06-08T08:29:04.600Z,23.10
2018-06-08T08:31:33.083Z,23.00
2018-06-08T08:34:01.593Z,22.80
2018-06-08T08:36:30.252Z,22.70
2018-06-08T08:38:58.759Z,22.50
2018-06-08T08:41:27.160Z,22.40
2018-06-08T08:43:55.575Z,22.20
2018-06-08T08:46:24.113Z,22.10
2018-06-08T08:53:48.899Z,21.90
2018-06-08T08:56:17.442Z,21.80
2018-06-08T08:58:45.884Z,21.60
2018-06-08T09:01:14.328Z,21.50
2018-06-08T09:03:43.057Z,21.30
2018-06-08T09:06:11.532Z,21.10
2018-06-08T09:08:40.078Z,20.90
2018-06-08T09:11:08.621Z,20.70
2018-06-08T09:13:37.115Z,20.60
2018-06-08T09:18:34.525Z,20.30
2018-06-08T09:21:03.083Z,20.20
2018-06-08T09:23:31.587Z,20.00
2018-06-08T09:26:00.141Z,19.90
2018-06-08T09:30:57.003Z,19.90
2018-06-08T09:33:25.492Z,19.90
2018-06-08T09:38:22.124Z,19.80
2018-06-08T09:40:50.578Z,19.70
2018-06-08T09:43:19.166Z,19.70
2018-06-08T09:45:47.711Z,19.70
2018-06-08T09:48:16.298Z,19.70
2018-06-08T09:50:44.814Z,19.60
2018-06-08T09:53:13.340Z,19.60
2018-06-08T09:58:09.992Z,19.50
2018-06-08T10:05:38.292Z,19.40
2018-06-08T10:08:07.255Z,19.40
2018-06-08T10:10:35.748Z,19.40
2018-06-08T10:13:04.236Z,19.40
2018-06-08T10:15:33.038Z,19.30
2018-06-08T10:18:01.521Z,19.40
2018-06-08T10:20:30.045Z,19.40
2018-06-08T10:22:58.685Z,19.30
2018-06-08T10:25:27.108Z,19.30
2018-06-08T10:27:55.643Z,19.40
2018-06-08T10:30:24.159Z,19.40
2018-06-08T10:32:52.911Z,19.40
2018-06-08T10:35:21.639Z,19.40
2018-06-08T10:37:50.062Z,19.50
2018-06-08T10:40:18.603Z,19.60
2018-06-08T10:42:47.448Z,19.70
2018-06-08T10:45:15.963Z,19.70
2018-06-08T10:50:12.585Z,19.80
2018-06-08T10:53:52.223Z,19.70
2018-06-08T10:56:20.836Z,19.60
2018-06-08T10:58:49.437Z,19.50
2018-06-08T11:01:18.927Z,19.50
2018-06-08T11:03:47.431Z,19.50
2018-06-08T11:06:16.157Z,19.50
2018-06-08T11:08:44.893Z,19.50
2018-06-08T11:11:13.359Z,19.50
2018-06-08T11:13:41.839Z,19.50
2018-06-08T11:16:10.355Z,19.50
2018-06-08T11:18:38.811Z,19.50
2018-06-08T11:21:07.575Z,19.50
2018-06-08T11:23:36.060Z,19.50
2018-06-08T11:26:04.540Z,19.50
2018-06-08T11:28:33.091Z,19.60
2018-06-08T11:31:01.609Z,19.60
2018-06-08T11:33:30.071Z,19.50
2018-06-08T11:35:58.633Z,19.50
2018-06-08T11:38:27.172Z,19.60
2018-06-08T11:40:55.647Z,19.60
2018-06-08T11:43:24.089Z,19.60
2018-06-08T11:45:52.672Z,19.70
2018-06-08T11:48:21.247Z,19.70
2018-06-08T11:50:49.852Z,19.80
2018-06-08T11:53:18.419Z,20.00
2018-06-08T11:58:14.948Z,20.10
2018-06-08T12:05:39.843Z,20.30
2018-06-08T12:08:08.376Z,20.40
2018-06-08T12:10:36.904Z,20.40
2018-06-08T12:13:05.543Z,20.40
2018-06-08T12:15:34.204Z,20.60
2018-06-08T12:20:30.967Z,20.70
2018-06-08T12:25:27.583Z,20.70
2018-06-08T12:27:56.050Z,20.60
2018-06-08T12:30:24.659Z,20.50
2018-06-08T12:32:53.132Z,20.50
2018-06-08T12:35:21.743Z,20.50
2018-06-08T12:37:50.176Z,20.60
2018-06-08T12:40:18.705Z,20.80
2018-06-08T12:42:47.169Z,21.00
2018-06-08T12:45:15.660Z,21.10
2018-06-08T12:47:44.127Z,21.10
2018-06-08T12:50:12.591Z,21.30
2018-06-08T12:52:41.106Z,21.30
2018-06-08T12:55:09.643Z,21.40
2018-06-08T12:57:38.156Z,21.60
2018-06-08T13:00:06.751Z,21.90
2018-06-08T13:02:35.204Z,22.00
2018-06-08T13:05:03.933Z,22.20
2018-06-08T13:07:32.426Z,22.30
2018-06-08T13:12:29.208Z,23.00
2018-06-08T13:14:57.715Z,23.00
2018-06-08T13:17:26.326Z,23.00
2018-06-08T13:19:54.911Z,22.80
2018-06-08T13:24:51.590Z,22.60
2018-06-08T13:29:48.387Z,22.50
2018-06-08T13:32:16.897Z,22.40
2018-06-08T13:34:45.405Z,22.20
2018-06-08T13:37:14.349Z,22.10
2018-06-08T13:39:42.853Z,22.10
2018-06-08T13:42:11.313Z,22.90
2018-06-08T13:44:39.892Z,23.80
2018-06-08T13:47:08.475Z,24.50
2018-06-08T13:49:37.074Z,24.60
2018-06-08T13:52:05.769Z,25.30
2018-06-08T13:54:34.267Z,25.00
2018-06-08T13:57:02.728Z,25.00
2018-06-08T13:59:31.211Z,25.50
2018-06-08T14:01:59.723Z,26.00
2018-06-08T14:04:28.236Z,26.40
2018-06-08T14:06:56.775Z,26.00
2018-06-08T14:09:25.248Z,26.10
2018-06-08T14:11:53.812Z,26.40
2018-06-08T14:16:50.407Z,27.00
2018-06-08T14:19:19.055Z,26.70
2018-06-08T14:21:47.599Z,26.80
2018-06-08T14:26:44.228Z,26.20
2018-06-08T14:29:12.753Z,25.80
2018-06-08T14:31:41.348Z,25.60
2018-06-08T14:34:09.932Z,25.40
2018-06-08T14:36:38.589Z,25.10
2018-06-08T14:41:36.411Z,24.40
2018-06-08T14:44:05.012Z,24.40
2018-06-08T14:46:33.542Z,24.60
2018-06-08T14:49:02.008Z,24.60
2018-06-08T14:51:30.495Z,24.60
2018-06-08T14:58:55.513Z,24.30
2018-06-08T15:01:24.049Z,24.10
2018-06-08T15:06:20.765Z,24.10
2018-06-08T15:08:49.270Z,24.30
2018-06-08T15:13:46.008Z,24.40
2018-06-08T15:16:14.451Z,24.30
2018-06-08T15:18:42.939Z,24.30
2018-06-08T15:21:11.422Z,24.20
2018-06-08T15:23:39.974Z,24.20
2018-06-08T15:28:36.578Z,24.20
2018-06-08T15:31:05.080Z,24.20
2018-06-08T15:36:01.825Z,24.50
2018-06-08T15:38:30.283Z,24.50
2018-06-08T15:40:59.064Z,24.40
2018-06-08T15:43:27.709Z,24.30
2018-06-08T15:45:56.195Z,24.50
2018-06-08T15:48:25.301Z,24.80
2018-06-08T15:50:54.307Z,24.90
2018-06-08T15:53:23.715Z,24.90
2018-06-08T15:55:52.597Z,24.60
2018-06-08T15:58:21.308Z,24.50
2018-06-08T16:00:50.156Z,24.30
2018-06-08T16:05:47.518Z,23.90
2018-06-08T16:08:16.071Z,24.00
2018-06-08T16:10:44.603Z,23.90
2018-06-08T16:13:13.138Z,23.80
2018-06-08T16:15:42.023Z,23.70
2018-06-08T16:18:10.612Z,23.60
2018-06-08T16:20:39.145Z,23.60
2018-06-08T16:23:07.716Z,23.60
2018-06-08T16:25:36.179Z,23.60
2018-06-08T16:28:04.973Z,23.70
2018-06-08T16:30:33.595Z,23.80
2018-06-08T16:33:02.524Z,23.80
2018-06-08T16:35:31.023Z,24.10
2018-06-08T16:37:59.508Z,24.10
2018-06-08T16:40:27.944Z,24.30
2018-06-08T16:42:56.517Z,24.50
2018-06-08T16:45:25.180Z,24.60
2018-06-08T16:52:50.242Z,25.00
2018-06-08T16:55:18.847Z,24.80
2018-06-08T16:57:48.679Z,24.70
2018-06-08T17:00:17.207Z,24.50
2018-06-08T17:02:45.942Z,24.50
2018-06-08T17:05:14.446Z,24.40
2018-06-08T17:07:42.948Z,24.40
2018-06-08T17:12:39.629Z,24.30
2018-06-08T17:17:36.818Z,24.20
2018-06-08T17:20:05.363Z,24.20
2018-06-08T17:22:34.734Z,24.10
2018-06-08T17:25:04.555Z,24.10
2018-06-08T17:27:33.093Z,24.00
2018-06-08T17:30:01.941Z,24.10
2018-06-08T17:32:30.739Z,24.00
2018-06-08T17:34:59.256Z,24.00
2018-06-08T17:37:27.999Z,23.90
2018-06-08T17:42:26.244Z,23.60
2018-06-08T17:44:56.255Z,23.60
2018-06-08T17:47:25.457Z,23.50
2018-06-08T17:49:54.640Z,23.50
2018-06-08T17:52:23.577Z,23.50
2018-06-08T17:54:52.059Z,23.40
2018-06-08T17:57:20.600Z,23.30
2018-06-08T17:59:49.151Z,23.20
2018-06-08T18:07:14.060Z,23.10
2018-06-08T18:09:42.597Z,23.10
2018-06-08T18:12:12.056Z,23.10
2018-06-08T18:14:40.512Z,23.10
2018-06-08T18:17:09.005Z,23.10
2018-06-08T18:19:37.503Z,23.10
2018-06-08T18:22:06.093Z,23.00
2018-06-08T18:24:34.579Z,22.90
2018-06-08T18:29:31.312Z,22.90
2018-06-08T18:31:59.875Z,22.80
2018-06-08T18:34:28.807Z,22.80
2018-06-08T18:36:57.287Z,22.70
2018-06-08T18:39:25.780Z,22.60
2018-06-08T18:44:22.571Z,22.50
2018-06-08T18:46:52.016Z,22.40
2018-06-08T18:50:06.592Z,22.40
2018-06-08T18:52:35.135Z,22.40
2018-06-08T18:55:03.737Z,22.40
2018-06-08T18:57:32.239Z,22.30
2018-06-08T19:00:00.704Z,22.20
2018-06-08T19:02:29.212Z,22.20
2018-06-08T19:04:57.731Z,22.10
2018-06-08T19:07:26.282Z,22.10
2018-06-08T19:09:54.812Z,22.00
2018-06-08T19:12:23.303Z,22.10
2018-06-08T19:14:51.807Z,22.00
2018-06-08T23:21:19.266Z,20.00
2018-06-08T23:23:47.767Z,20.00
2018-06-08T23:26:16.224Z,19.90
2018-06-08T23:28:44.709Z,19.90
2018-06-08T23:31:13.191Z,19.90
2018-06-08T23:33:41.668Z,20.00
2018-06-08T23:36:10.139Z,20.00
2018-06-08T23:38:38.627Z,20.00
2018-06-08T23:41:07.191Z,20.00
2018-06-08T23:43:35.719Z,20.00
2018-06-08T23:51:00.523Z,20.10
2018-06-08T23:53:29.028Z,20.10
2018-06-08T23:55:57.481Z,20.10
2018-06-08T23:58:25.956Z,20.10
